This is the latest recevied weather packets stored in our database for station/object OE2ATN. If no packets are shown the sender has not sent any weather packets the latest 10 day(s).
| Time | Temp. | Humidity | Pressure | Rain* | Wind** | Luminosity | Snow |
|---|---|---|---|---|---|---|---|
| 1777931077 | 13.33° C | 58% | 1020.2 hPa | 0 mm | - | - | - |
| 1777930777 | 12.78° C | 60% | 1020.2 hPa | 0 mm | - | - | - |
| 1777930477 | 13.33° C | 59% | 1020.2 hPa | 0 mm | - | - | - |
| 1777930177 | 13.33° C | 58% | 1020.3 hPa | 0 mm | - | - | - |
| 1777929877 | 13.33° C | 58% | 1020.3 hPa | 0 mm | - | - | - |
| 1777929577 | 13.33° C | 58% | 1020.3 hPa | 0 mm | - | - | - |
| 1777929276 | 13.33° C | 58% | 1020.3 hPa | 0 mm | - | - | - |
| 1777928976 | 13.33° C | 57% | 1020.3 hPa | 0 mm | - | - | - |
| 1777928676 | 13.89° C | 57% | 1020.3 hPa | 0 mm | - | - | - |
| 1777928376 | 13.89° C | 57% | 1020.4 hPa | 0 mm | - | - | - |
| 1777928076 | 14.44° C | 54% | 1020.3 hPa | 0 mm | - | - | - |
| 1777927776 | 14.44° C | 54% | 1020.2 hPa | 0 mm | - | - | - |
| 1777927475 | 14.44° C | 54% | 1020.3 hPa | 0 mm | - | - | - |
| 1777927176 | 14.44° C | 53% | 1020.2 hPa | 0 mm | - | - | - |
| 1777926876 | 14.44° C | 54% | 1020.2 hPa | 0 mm | - | - | - |
| 1777926575 | 15° C | 50% | 1020.2 hPa | 0 mm | - | - | - |
| 1777926275 | 15° C | 51% | 1020.2 hPa | 0 mm | - | - | - |
| 1777925975 | 15.56° C | 51% | 1020.2 hPa | 0 mm | - | - | - |
| 1777925675 | 15.56° C | 50% | 1020.2 hPa | 0 mm | - | - | - |
| 1777925375 | 15.56° C | 50% | 1020.1 hPa | 0 mm | - | - | - |
| 1777925075 | 15.56° C | 49% | 1020 hPa | 0 mm | - | - | - |
| 1777924775 | 15.56° C | 48% | 1020 hPa | 0 mm | - | - | - |
| 1777924474 | 15.56° C | 48% | 1020.1 hPa | 0 mm | - | - | - |
| 1777924174 | 16.67° C | 45% | 1020 hPa | 0 mm | - | - | - |
| 1777923875 | 17.22° C | 42% | 1020 hPa | 0 mm | - | - | - |
* Rain latest hour (hover to see other rain measurements)
** Current wind speed in m/s (hover to see current wind gust speed)